createdAt,value
2018-05-17T00:00:29.528Z,13.40
2018-05-17T00:02:57.124Z,13.30
2018-05-17T00:05:24.661Z,13.20
2018-05-17T00:07:53.082Z,13.10
2018-05-17T00:10:20.644Z,13.00
2018-05-17T00:12:48.384Z,13.00
2018-05-17T00:15:16.717Z,12.90
2018-05-17T00:17:44.380Z,12.90
2018-05-17T00:20:11.904Z,12.90
2018-05-17T00:22:40.346Z,12.90
2018-05-17T00:25:07.876Z,12.90
2018-05-17T00:27:35.501Z,12.80
2018-05-17T00:30:03.092Z,12.80
2018-05-17T00:32:30.620Z,12.80
2018-05-17T00:34:58.152Z,12.80
2018-05-17T00:37:25.728Z,12.80
2018-05-17T00:39:53.257Z,12.70
2018-05-17T00:42:20.790Z,12.70
2018-05-17T00:44:49.125Z,12.70
2018-05-17T00:47:16.672Z,12.70
2018-05-17T00:49:44.212Z,12.60
2018-05-17T00:52:12.561Z,12.60
2018-05-17T00:54:40.090Z,12.60
2018-05-17T00:57:07.625Z,12.50
2018-05-17T00:59:35.201Z,12.50
2018-05-17T01:02:02.732Z,12.50
2018-05-17T01:04:30.280Z,12.40
2018-05-17T01:06:57.856Z,12.40
2018-05-17T01:09:25.392Z,12.40
2018-05-17T01:11:52.921Z,12.30
2018-05-17T01:14:20.497Z,12.20
2018-05-17T01:16:48.037Z,12.20
2018-05-17T01:19:15.572Z,12.20
2018-05-17T01:21:43.193Z,12.20
2018-05-17T01:24:10.727Z,12.20
2018-05-17T01:26:39.060Z,12.20
2018-05-17T01:29:06.721Z,12.20
2018-05-17T01:31:34.501Z,12.20
2018-05-17T01:34:02.077Z,12.10
2018-05-17T01:36:29.656Z,12.10
2018-05-17T01:38:57.181Z,12.10
2018-05-17T01:41:25.476Z,12.10
2018-05-17T01:43:53.844Z,12.20
2018-05-17T01:46:21.378Z,12.10
2018-05-17T01:48:48.900Z,12.10
2018-05-17T01:51:16.493Z,12.10
2018-05-17T01:53:44.029Z,12.10
2018-05-17T01:56:11.564Z,12.10
2018-05-17T01:58:39.135Z,12.10
2018-05-17T02:01:06.657Z,12.10
2018-05-17T02:03:34.619Z,12.10
2018-05-17T02:06:02.193Z,12.00
2018-05-17T02:08:29.717Z,12.00
2018-05-17T02:10:57.255Z,12.00
2018-05-17T02:13:25.597Z,12.10
2018-05-17T02:15:53.127Z,12.00
2018-05-17T02:18:20.656Z,12.10
2018-05-17T02:20:48.236Z,12.00
2018-05-17T02:23:15.770Z,12.00
2018-05-17T02:25:43.313Z,12.00
2018-05-17T02:28:10.905Z,12.00
2018-05-17T02:30:38.444Z,12.10
2018-05-17T02:33:05.989Z,12.10
2018-05-17T02:35:33.573Z,12.10
2018-05-17T02:38:01.115Z,12.20
2018-05-17T02:40:28.657Z,12.20
2018-05-17T02:42:56.358Z,12.20
2018-05-17T02:45:23.905Z,12.10
2018-05-17T02:47:51.477Z,12.10
2018-05-17T02:50:19.065Z,12.10
2018-05-17T02:52:46.625Z,12.10
2018-05-17T02:55:14.189Z,12.10
2018-05-17T02:57:41.768Z,12.10
2018-05-17T03:00:09.327Z,12.10
2018-05-17T03:02:36.856Z,12.10
2018-05-17T03:05:05.921Z,12.00
2018-05-17T03:07:33.449Z,12.00
2018-05-17T03:10:01.764Z,11.90
2018-05-17T03:12:29.339Z,11.90
2018-05-17T03:14:56.875Z,11.90
2018-05-17T03:17:25.176Z,11.90
2018-05-17T03:19:52.753Z,11.90
2018-05-17T03:22:20.291Z,11.80
2018-05-17T03:24:47.830Z,11.80
2018-05-17T03:27:15.420Z,11.80
2018-05-17T03:29:43.805Z,11.90
2018-05-17T03:32:11.334Z,11.80
2018-05-17T03:34:38.929Z,11.70
2018-05-17T03:37:06.469Z,11.70
2018-05-17T03:39:34.005Z,11.70
2018-05-17T03:42:01.652Z,11.70
2018-05-17T03:44:29.181Z,11.60
2018-05-17T03:46:57.477Z,11.60
2018-05-17T03:49:25.049Z,11.60
2018-05-17T03:51:52.596Z,11.60
2018-05-17T03:54:20.909Z,11.60
2018-05-17T03:56:48.488Z,11.60
2018-05-17T03:59:16.024Z,11.70
2018-05-17T04:01:56.189Z,11.80
2018-05-17T04:04:35.443Z,11.80
2018-05-17T04:07:03.811Z,11.80
2018-05-17T04:09:31.347Z,11.80
2018-05-17T04:11:58.872Z,11.80
2018-05-17T04:14:27.202Z,11.90
2018-05-17T04:16:54.730Z,11.90
2018-05-17T04:19:23.036Z,12.00
2018-05-17T04:21:51.381Z,12.20
2018-05-17T04:24:18.922Z,12.10
2018-05-17T04:26:46.551Z,12.30
2018-05-17T04:29:14.923Z,12.80
2018-05-17T04:31:42.572Z,12.80
2018-05-17T04:34:10.137Z,13.30
2018-05-17T04:36:37.709Z,13.60
2018-05-17T04:39:06.054Z,13.60
2018-05-17T04:41:34.353Z,13.30
2018-05-17T04:44:01.940Z,13.30
2018-05-17T04:46:29.521Z,13.20
2018-05-17T04:48:57.057Z,13.20
2018-05-17T04:51:25.400Z,13.30
2018-05-17T04:53:52.946Z,13.30
2018-05-17T04:56:20.488Z,13.40
2018-05-17T04:58:48.855Z,13.60
2018-05-17T05:01:16.380Z,13.60
2018-05-17T05:03:43.941Z,13.70
2018-05-17T05:06:11.512Z,13.60
2018-05-17T05:08:39.052Z,13.50
2018-05-17T05:11:07.340Z,13.50
2018-05-17T05:13:34.916Z,13.50
2018-05-17T05:16:03.233Z,13.60
2018-05-17T05:18:30.775Z,13.60
2018-05-17T05:20:59.117Z,13.70
2018-05-17T05:23:26.717Z,13.60
2018-05-17T05:25:54.224Z,13.70
2018-05-17T05:28:22.565Z,13.80
2018-05-17T05:30:50.110Z,13.80
2018-05-17T05:33:17.660Z,13.80
2018-05-17T05:35:45.366Z,13.70
2018-05-17T05:38:12.906Z,13.90
2018-05-17T05:40:40.588Z,13.90
2018-05-17T05:43:08.171Z,14.00
2018-05-17T05:45:36.645Z,14.00
2018-05-17T05:48:04.183Z,14.10
2018-05-17T05:50:31.764Z,14.00
2018-05-17T05:53:00.052Z,14.00
2018-05-17T05:55:28.353Z,13.90
2018-05-17T05:57:56.853Z,13.80
2018-05-17T06:00:24.388Z,13.80
2018-05-17T06:02:51.929Z,13.90
2018-05-17T06:05:19.519Z,14.00
2018-05-17T06:07:47.047Z,14.00
2018-05-17T06:10:14.575Z,14.00
2018-05-17T06:12:42.205Z,14.10
2018-05-17T06:15:09.744Z,14.20
2018-05-17T06:17:38.041Z,14.20
2018-05-17T06:20:05.729Z,14.20
2018-05-17T06:22:33.312Z,14.20
2018-05-17T06:25:00.840Z,14.30
2018-05-17T06:27:29.198Z,14.80
2018-05-17T06:29:56.728Z,14.70
2018-05-17T06:32:24.260Z,14.80
2018-05-17T06:34:51.833Z,14.80
2018-05-17T06:37:19.365Z,14.70
2018-05-17T06:39:46.902Z,14.60
2018-05-17T06:42:14.475Z,14.70
2018-05-17T06:44:42.069Z,14.80
2018-05-17T06:47:09.629Z,14.80
2018-05-17T06:49:37.226Z,15.00
2018-05-17T06:52:04.759Z,15.00
2018-05-17T06:54:32.340Z,15.00
2018-05-17T06:56:59.956Z,14.90
2018-05-17T06:59:27.489Z,15.00
2018-05-17T07:01:55.042Z,15.20
2018-05-17T07:04:22.622Z,15.50
2018-05-17T07:06:50.175Z,15.80
2018-05-17T07:09:18.476Z,16.00
2018-05-17T07:11:46.081Z,16.00
2018-05-17T07:14:13.617Z,16.10
2018-05-17T07:16:41.181Z,16.00
2018-05-17T07:19:09.533Z,16.10
2018-05-17T07:21:37.785Z,16.10
2018-05-17T07:24:05.396Z,16.10
2018-05-17T07:26:32.939Z,16.20
2018-05-17T07:29:00.478Z,16.30
2018-05-17T07:31:28.026Z,16.40
2018-05-17T07:33:55.635Z,16.30
2018-05-17T07:36:23.224Z,16.20
2018-05-17T07:38:50.761Z,16.10
2018-05-17T07:41:18.353Z,16.00
2018-05-17T07:43:45.888Z,16.00
2018-05-17T07:46:14.185Z,16.10
2018-05-17T07:48:42.537Z,16.10
2018-05-17T07:51:10.066Z,16.10
2018-05-17T07:53:37.916Z,16.10
2018-05-17T07:56:06.256Z,16.10
2018-05-17T07:58:33.783Z,16.10
2018-05-17T08:01:02.089Z,16.30
2018-05-17T08:03:29.674Z,16.30
2018-05-17T08:05:57.204Z,16.30
2018-05-17T08:08:24.739Z,16.30
2018-05-17T08:10:52.313Z,16.50
2018-05-17T08:13:19.840Z,16.60
2018-05-17T08:15:47.392Z,16.50
2018-05-17T08:18:15.736Z,16.60
2018-05-17T08:20:43.267Z,16.60
2018-05-17T08:23:10.804Z,16.50
2018-05-17T08:25:38.381Z,16.60
2018-05-17T08:28:05.913Z,16.60
2018-05-17T08:30:33.449Z,16.70
2018-05-17T08:33:01.783Z,16.60
2018-05-17T08:35:29.319Z,16.60
2018-05-17T08:37:56.863Z,16.60
2018-05-17T08:40:25.209Z,16.60
2018-05-17T08:42:52.737Z,16.60
2018-05-17T08:45:21.037Z,16.80
2018-05-17T08:47:48.617Z,16.80
2018-05-17T08:50:16.178Z,17.00
2018-05-17T08:52:43.808Z,17.10
2018-05-17T08:55:11.456Z,17.20
2018-05-17T08:57:38.989Z,17.40
2018-05-17T09:00:08.213Z,17.40
2018-05-17T09:02:35.797Z,17.40
2018-05-17T09:05:03.325Z,17.50
2018-05-17T09:07:31.624Z,17.50
2018-05-17T09:09:59.965Z,17.50
2018-05-17T09:12:27.499Z,17.50
2018-05-17T09:14:55.028Z,17.60
2018-05-17T09:17:22.607Z,17.80
2018-05-17T09:19:50.143Z,17.80
2018-05-17T09:22:17.678Z,17.80
2018-05-17T09:24:45.323Z,17.80
2018-05-17T09:27:12.865Z,17.60
2018-05-17T09:29:40.402Z,17.70
2018-05-17T09:32:08.929Z,17.70
2018-05-17T09:34:36.461Z,17.70
2018-05-17T09:37:04.007Z,17.70
2018-05-17T09:39:32.358Z,17.60
2018-05-17T09:41:59.899Z,17.60
2018-05-17T09:44:27.436Z,17.60
2018-05-17T09:46:55.793Z,17.50
2018-05-17T09:49:23.326Z,17.50
2018-05-17T09:51:50.860Z,17.40
2018-05-17T09:54:18.433Z,17.40
2018-05-17T09:56:45.964Z,17.60
2018-05-17T09:59:13.491Z,17.60
2018-05-17T10:01:41.829Z,17.60
2018-05-17T10:04:09.381Z,17.60
2018-05-17T10:06:36.915Z,17.50
2018-05-17T10:09:06.229Z,17.50
2018-05-17T10:11:34.648Z,17.30
2018-05-17T10:14:02.188Z,17.30
2018-05-17T10:16:30.533Z,17.10
2018-05-17T10:18:58.065Z,17.10
2018-05-17T10:21:26.379Z,17.20
2018-05-17T10:23:53.948Z,17.20
2018-05-17T10:26:21.501Z,17.20
2018-05-17T10:28:49.028Z,17.20
2018-05-17T10:31:16.615Z,17.00
2018-05-17T10:33:44.916Z,17.10
2018-05-17T10:36:13.223Z,17.30
2018-05-17T10:38:40.801Z,17.30
2018-05-17T10:41:09.245Z,17.30
2018-05-17T10:43:36.785Z,17.40
2018-05-17T10:46:04.366Z,17.50
2018-05-17T10:48:31.892Z,17.60
2018-05-17T10:50:59.447Z,17.60
2018-05-17T10:53:27.869Z,17.60
2018-05-17T10:55:55.396Z,17.60
2018-05-17T10:58:22.944Z,17.70
2018-05-17T11:00:50.512Z,17.60
2018-05-17T11:03:18.052Z,17.50
2018-05-17T11:05:45.591Z,17.70
2018-05-17T11:08:14.028Z,17.80
2018-05-17T11:10:41.553Z,17.80
2018-05-17T11:13:10.167Z,17.70
2018-05-17T11:15:39.437Z,17.70
2018-05-17T11:18:06.973Z,17.70
2018-05-17T11:20:34.500Z,17.80
2018-05-17T11:23:02.848Z,17.90
2018-05-17T11:25:30.376Z,17.90
2018-05-17T11:27:58.673Z,18.20
2018-05-17T11:30:26.248Z,18.20
2018-05-17T11:32:53.784Z,18.30
2018-05-17T11:35:21.317Z,18.40
2018-05-17T11:37:48.892Z,18.30
2018-05-17T11:40:16.422Z,18.20
2018-05-17T11:42:43.991Z,18.20
2018-05-17T11:45:11.565Z,18.20
2018-05-17T11:47:39.465Z,18.10
2018-05-17T11:50:07.009Z,18.10
2018-05-17T11:52:35.363Z,18.10
2018-05-17T11:55:02.897Z,18.00
2018-05-17T11:57:30.425Z,18.10
2018-05-17T11:59:58.033Z,18.00
2018-05-17T12:02:25.624Z,17.90
2018-05-17T12:04:53.156Z,17.90
2018-05-17T12:07:20.882Z,17.90
2018-05-17T12:09:49.136Z,17.80
2018-05-17T12:12:16.678Z,17.80
2018-05-17T12:14:45.024Z,17.60
2018-05-17T12:17:12.562Z,17.60
2018-05-17T12:19:40.092Z,17.40
2018-05-17T12:22:07.692Z,17.20
2018-05-17T12:24:36.029Z,16.90
2018-05-17T12:27:03.576Z,16.90
2018-05-17T12:29:31.227Z,16.90
2018-05-17T12:31:58.774Z,16.80
2018-05-17T12:34:26.268Z,16.80
2018-05-17T12:36:54.617Z,16.90
2018-05-17T12:39:22.163Z,16.90
2018-05-17T12:41:49.720Z,16.90
2018-05-17T12:44:17.326Z,16.90
2018-05-17T12:46:44.869Z,17.00
2018-05-17T12:49:12.405Z,16.90
2018-05-17T12:51:40.748Z,16.80
2018-05-17T12:54:08.308Z,16.70
2018-05-17T12:56:35.839Z,16.70
2018-05-17T12:59:04.179Z,16.60
2018-05-17T13:01:31.743Z,16.60
2018-05-17T13:03:59.273Z,16.50
2018-05-17T13:06:27.618Z,16.30
2018-05-17T13:08:55.157Z,16.30
2018-05-17T13:11:22.700Z,16.30
2018-05-17T13:13:51.052Z,16.30
2018-05-17T13:16:18.589Z,16.30
2018-05-17T13:18:46.133Z,16.30
2018-05-17T13:21:14.492Z,16.20
2018-05-17T13:23:42.031Z,16.10
2018-05-17T13:26:09.877Z,16.20
2018-05-17T13:28:38.212Z,16.10
2018-05-17T13:31:05.744Z,16.10
2018-05-17T13:33:33.288Z,16.00
2018-05-17T13:36:00.869Z,15.90
2018-05-17T13:38:29.175Z,15.80
2018-05-17T13:40:56.727Z,15.80
2018-05-17T13:43:25.099Z,15.80
2018-05-17T13:45:52.642Z,15.60
2018-05-17T13:48:20.203Z,15.80
2018-05-17T13:50:47.793Z,15.80
2018-05-17T13:53:15.356Z,15.90
2018-05-17T13:55:42.898Z,15.80
2018-05-17T13:58:10.485Z,15.70
2018-05-17T14:00:38.033Z,15.80
2018-05-17T14:03:06.339Z,15.80
2018-05-17T14:05:33.925Z,15.80
2018-05-17T14:08:01.477Z,15.80
2018-05-17T14:10:29.053Z,15.80
2018-05-17T14:12:56.642Z,15.70
2018-05-17T14:15:24.202Z,15.70
2018-05-17T14:17:51.745Z,15.70
2018-05-17T14:20:20.107Z,15.70
2018-05-17T14:22:47.660Z,15.70
2018-05-17T14:25:16.021Z,15.70
2018-05-17T14:27:43.606Z,15.70
2018-05-17T14:30:11.146Z,15.70
2018-05-17T14:32:38.695Z,15.70
2018-05-17T14:35:07.049Z,15.70
2018-05-17T14:37:34.571Z,15.70
2018-05-17T14:40:02.185Z,15.70
2018-05-17T14:42:29.772Z,15.60
2018-05-17T14:44:57.297Z,15.50
2018-05-17T14:47:24.836Z,15.50
2018-05-17T14:49:52.441Z,15.40
2018-05-17T14:52:19.976Z,15.30
2018-05-17T14:54:47.512Z,15.30
2018-05-17T14:57:16.048Z,15.30
2018-05-17T14:59:43.577Z,15.30
2018-05-17T15:02:11.112Z,15.30
2018-05-17T15:04:38.764Z,15.30
2018-05-17T15:07:07.074Z,15.30
2018-05-17T15:09:34.610Z,15.30
2018-05-17T15:12:02.185Z,15.30
2018-05-17T15:14:29.715Z,15.40
2018-05-17T15:16:57.249Z,15.30
2018-05-17T15:19:25.605Z,15.20
2018-05-17T15:21:53.181Z,15.20
2018-05-17T15:24:20.723Z,15.10
2018-05-17T15:26:48.301Z,15.00
2018-05-17T15:29:15.836Z,15.00
2018-05-17T15:31:43.367Z,15.00
2018-05-17T15:34:10.953Z,14.90
2018-05-17T15:36:39.256Z,14.90
2018-05-17T15:39:06.800Z,14.80
2018-05-17T15:41:34.471Z,14.80
2018-05-17T15:44:01.945Z,14.70
2018-05-17T15:46:29.477Z,14.60
2018-05-17T15:48:57.066Z,14.40
2018-05-17T15:51:24.597Z,14.40
2018-05-17T15:53:52.141Z,14.30
2018-05-17T15:56:19.716Z,14.30
2018-05-17T15:58:48.009Z,14.30
2018-05-17T16:01:16.299Z,14.30
2018-05-17T16:03:44.644Z,14.20
2018-05-17T16:06:12.182Z,14.20
2018-05-17T16:08:39.727Z,14.20
2018-05-17T16:11:08.116Z,14.10
2018-05-17T16:13:36.422Z,14.10
2018-05-17T16:16:03.986Z,14.10
2018-05-17T16:18:31.605Z,14.10
2018-05-17T16:20:59.145Z,14.10
2018-05-17T16:23:26.686Z,14.00
2018-05-17T16:25:55.024Z,14.00
2018-05-17T16:28:22.552Z,14.00
2018-05-17T16:30:50.864Z,13.90
2018-05-17T16:33:18.448Z,13.90
2018-05-17T16:35:45.986Z,13.90
2018-05-17T16:38:14.309Z,14.00
2018-05-17T16:40:41.974Z,14.00
2018-05-17T16:43:09.562Z,14.00
2018-05-17T16:45:37.085Z,13.90
2018-05-17T16:48:05.437Z,13.90
2018-05-17T16:50:32.970Z,13.90
2018-05-17T16:53:00.572Z,13.90
2018-05-17T16:55:28.939Z,13.90
2018-05-17T16:57:56.534Z,13.90
2018-05-17T17:00:24.157Z,14.00
2018-05-17T17:02:51.822Z,14.00
2018-05-17T17:05:19.429Z,14.00
2018-05-17T17:07:47.013Z,14.00
2018-05-17T17:10:14.624Z,14.00
2018-05-17T17:12:42.158Z,14.00
2018-05-17T17:15:09.692Z,14.10
2018-05-17T17:17:38.108Z,14.00
2018-05-17T17:20:05.693Z,14.00
2018-05-17T17:22:33.232Z,14.00
2018-05-17T17:25:01.581Z,13.90
2018-05-17T17:27:29.126Z,13.90
2018-05-17T17:29:56.667Z,13.90
2018-05-17T17:32:24.260Z,13.90
2018-05-17T17:34:51.796Z,13.90
2018-05-17T17:37:20.093Z,13.80
2018-05-17T17:39:48.469Z,13.70
2018-05-17T17:42:16.770Z,13.70
2018-05-17T17:44:45.085Z,13.70
2018-05-17T17:47:12.665Z,13.70
2018-05-17T17:49:40.196Z,13.80
2018-05-17T17:52:08.496Z,13.80
2018-05-17T17:54:36.069Z,13.80
2018-05-17T17:57:03.608Z,13.80
2018-05-17T17:59:31.155Z,13.80
2018-05-17T18:01:58.735Z,13.80
2018-05-17T18:04:26.266Z,13.70
2018-05-17T18:06:53.833Z,13.70
2018-05-17T18:09:21.413Z,13.60
2018-05-17T18:11:49.551Z,13.50
2018-05-17T18:14:18.018Z,13.40
2018-05-17T18:16:45.632Z,13.40
2018-05-17T18:19:13.960Z,13.30
2018-05-17T18:21:42.438Z,13.20
2018-05-17T18:24:10.027Z,13.20
2018-05-17T18:26:37.578Z,13.20
2018-05-17T18:29:05.109Z,13.20
2018-05-17T18:31:32.705Z,13.20
2018-05-17T18:34:01.168Z,13.20
2018-05-17T18:36:28.694Z,13.20
2018-05-17T18:38:56.275Z,13.20
2018-05-17T18:41:23.812Z,13.20
2018-05-17T18:43:51.369Z,13.20
2018-05-17T18:46:19.713Z,13.00
2018-05-17T18:48:47.263Z,13.00
2018-05-17T18:51:14.814Z,13.00
2018-05-17T18:53:43.257Z,13.00
2018-05-17T18:56:11.736Z,12.90
2018-05-17T18:58:39.272Z,13.00
2018-05-17T19:01:07.631Z,13.00
2018-05-17T19:03:35.167Z,12.90
2018-05-17T19:06:02.715Z,12.90
2018-05-17T19:08:30.316Z,12.90
2018-05-17T19:10:57.849Z,12.90
2018-05-17T19:13:25.391Z,12.90
2018-05-17T19:15:52.969Z,12.90
2018-05-17T19:18:20.500Z,12.90
2018-05-17T19:20:48.060Z,13.00
2018-05-17T19:23:15.666Z,13.00
2018-05-17T19:25:43.221Z,13.00
2018-05-17T19:28:14.210Z,13.00
2018-05-17T19:30:41.860Z,13.00
2018-05-17T19:33:09.393Z,13.00
2018-05-17T19:35:36.940Z,12.90
2018-05-17T19:38:05.281Z,12.90
2018-05-17T19:40:32.848Z,12.90
2018-05-17T19:43:00.389Z,12.90
2018-05-17T19:45:27.991Z,12.80
2018-05-17T19:47:55.548Z,12.80
2018-05-17T19:50:23.089Z,12.80
2018-05-17T19:52:51.449Z,12.80
2018-05-17T19:55:19.763Z,12.80
2018-05-17T19:57:48.073Z,12.80
2018-05-17T20:00:15.665Z,12.80
2018-05-17T20:02:43.201Z,12.80
2018-05-17T20:05:10.729Z,12.80
2018-05-17T20:07:38.309Z,12.80
2018-05-17T20:10:05.849Z,12.80
2018-05-17T20:12:33.399Z,12.70
2018-05-17T20:15:00.989Z,12.70
2018-05-17T20:17:28.525Z,12.70
2018-05-17T20:19:56.069Z,12.70
2018-05-17T20:22:23.649Z,12.70
2018-05-17T20:24:51.186Z,12.70
2018-05-17T20:27:18.732Z,12.70
2018-05-17T20:29:46.313Z,12.80
2018-05-17T20:32:13.843Z,12.80
2018-05-17T20:34:42.853Z,12.80
2018-05-17T20:37:12.118Z,12.80
2018-05-17T20:39:39.651Z,12.80
2018-05-17T20:42:07.207Z,12.80
2018-05-17T20:44:35.552Z,12.80
2018-05-17T20:47:03.097Z,12.70
2018-05-17T20:49:30.646Z,12.70
2018-05-17T20:51:58.237Z,12.70
2018-05-17T20:54:25.764Z,12.70
2018-05-17T20:56:53.300Z,12.60
2018-05-17T20:59:20.873Z,12.70
2018-05-17T21:01:48.435Z,12.70
2018-05-17T21:04:15.971Z,12.70
2018-05-17T21:06:43.559Z,12.70
2018-05-17T21:09:11.097Z,12.70
2018-05-17T21:11:39.430Z,12.70
2018-05-17T21:14:07.009Z,12.70
2018-05-17T21:16:34.558Z,12.70
2018-05-17T21:19:02.092Z,12.70
2018-05-17T21:21:29.668Z,12.70
2018-05-17T21:23:57.958Z,12.70
2018-05-17T21:26:26.256Z,12.70
2018-05-17T21:28:54.601Z,12.70
2018-05-17T21:31:22.134Z,12.70
2018-05-17T21:33:49.662Z,12.70
2018-05-17T21:36:17.241Z,12.70
2018-05-17T21:38:44.765Z,12.70
2018-05-17T21:41:12.395Z,12.70
2018-05-17T21:43:40.737Z,12.60
2018-05-17T21:46:08.281Z,12.60
2018-05-17T21:48:35.816Z,12.60
2018-05-17T21:51:03.394Z,12.60
2018-05-17T21:53:31.689Z,12.60
2018-05-17T21:55:59.988Z,12.60
2018-05-17T21:58:32.224Z,12.60
2018-05-17T22:00:59.752Z,12.60
2018-05-17T22:03:27.280Z,12.60
2018-05-17T22:05:54.856Z,12.60
2018-05-17T22:08:22.388Z,12.60
2018-05-17T22:10:49.919Z,12.70
2018-05-17T22:13:18.263Z,12.70
2018-05-17T22:15:45.788Z,12.70
2018-05-17T22:18:13.314Z,12.60
2018-05-17T22:20:40.913Z,12.60
2018-05-17T22:23:09.221Z,12.60
2018-05-17T22:25:36.753Z,12.60
2018-05-17T22:28:04.332Z,12.60
2018-05-17T22:30:31.867Z,12.60
2018-05-17T22:32:59.402Z,12.60
2018-05-17T22:35:26.983Z,12.50
2018-05-17T22:37:54.522Z,12.60
2018-05-17T22:40:22.826Z,12.50
2018-05-17T22:42:51.162Z,12.60
2018-05-17T22:45:18.693Z,12.60
2018-05-17T22:47:46.217Z,12.60
2018-05-17T22:50:13.788Z,12.60
2018-05-17T22:52:41.329Z,12.50
2018-05-17T22:55:08.861Z,12.50
2018-05-17T22:57:48.928Z,12.50
2018-05-17T23:00:17.230Z,12.50
2018-05-17T23:02:44.768Z,12.50
2018-05-17T23:05:12.753Z,12.50
2018-05-17T23:07:40.279Z,12.40
2018-05-17T23:10:07.817Z,12.40
2018-05-17T23:12:35.415Z,12.40
2018-05-17T23:15:02.962Z,12.40
2018-05-17T23:17:30.557Z,12.40
2018-05-17T23:19:58.125Z,12.40
2018-05-17T23:22:35.300Z,12.40
2018-05-17T23:25:02.882Z,12.40
2018-05-17T23:27:30.414Z,12.40
2018-05-17T23:29:57.950Z,12.40
2018-05-17T23:32:25.538Z,12.30
2018-05-17T23:34:53.065Z,12.40
2018-05-17T23:37:20.600Z,12.30
2018-05-17T23:39:48.169Z,12.30
2018-05-17T23:42:15.717Z,12.30
2018-05-17T23:44:43.328Z,12.30
2018-05-17T23:47:11.671Z,12.30
2018-05-17T23:49:39.197Z,12.30
2018-05-17T23:52:07.498Z,12.30
2018-05-17T23:54:35.080Z,12.30
2018-05-17T23:57:02.659Z,12.30
2018-05-17T23:59:30.324Z,12.20
